createdAt,value
2019-02-26T00:00:44.917Z,3.27
2019-02-26T00:01:50.463Z,3.28
2019-02-26T00:02:53.076Z,3.28
2019-02-26T00:03:58.606Z,3.45
2019-02-26T00:05:03.847Z,3.62
2019-02-26T00:06:10.660Z,3.60
2019-02-26T00:07:18.394Z,3.40
2019-02-26T00:08:24.614Z,3.19
2019-02-26T00:09:30.539Z,2.99
2019-02-26T00:10:36.446Z,2.82
2019-02-26T00:11:40.285Z,2.66
2019-02-26T00:12:46.095Z,2.56
2019-02-26T00:13:52.427Z,2.64
2019-02-26T00:15:00.207Z,2.70
2019-02-26T00:16:07.715Z,2.79
2019-02-26T00:17:11.197Z,2.92
2019-02-26T00:18:16.831Z,3.04
2019-02-26T00:19:21.576Z,3.05
2019-02-26T00:20:29.059Z,3.04
2019-02-26T00:21:33.136Z,3.07
2019-02-26T00:22:41.102Z,3.05
2019-02-26T00:23:46.659Z,2.93
2019-02-26T00:24:51.046Z,2.77
2019-02-26T00:25:56.977Z,2.70
2019-02-26T00:27:03.778Z,2.68
2019-02-26T00:28:08.899Z,2.71
2019-02-26T00:29:14.825Z,2.63
2019-02-26T00:30:20.751Z,2.52
2019-02-26T00:31:28.272Z,2.58
2019-02-26T00:32:33.883Z,2.45
2019-02-26T00:33:38.701Z,2.20
2019-02-26T00:34:44.628Z,2.06
2019-02-26T00:35:50.520Z,2.00
2019-02-26T00:36:57.331Z,1.91
2019-02-26T00:38:02.073Z,1.93
2019-02-26T00:39:07.367Z,1.79
2019-02-26T00:40:14.661Z,1.70
2019-02-26T00:41:20.726Z,1.64
2019-02-26T00:42:26.360Z,1.77
2019-02-26T00:43:32.350Z,1.77
2019-02-26T00:44:37.310Z,1.77
2019-02-26T00:45:42.773Z,1.73
2019-02-26T00:46:48.722Z,1.75
2019-02-26T00:47:54.664Z,1.85
2019-02-26T00:49:01.437Z,1.73
2019-02-26T00:50:07.378Z,1.73
2019-02-26T00:51:11.814Z,1.74
2019-02-26T00:52:18.660Z,1.59
2019-02-26T00:53:25.975Z,1.50
2019-02-26T00:54:31.977Z,1.53
2019-02-26T00:55:37.953Z,1.51
2019-02-26T00:56:42.526Z,1.41
2019-02-26T00:57:48.466Z,1.32
2019-02-26T00:58:54.425Z,1.23
2019-02-26T01:00:02.861Z,1.13
2019-02-26T01:01:08.217Z,1.08
2019-02-26T01:02:12.321Z,0.99
2019-02-26T01:03:18.294Z,0.91
2019-02-26T01:04:24.226Z,0.95
2019-02-26T01:05:30.170Z,0.98
2019-02-26T01:06:36.083Z,1.00
2019-02-26T01:07:44.256Z,1.10
2019-02-26T01:08:48.139Z,1.12
2019-02-26T01:09:54.701Z,1.09
2019-02-26T01:11:02.082Z,1.19
2019-02-26T01:12:06.561Z,1.41
2019-02-26T01:13:11.691Z,1.53
2019-02-26T01:14:18.594Z,1.42
2019-02-26T01:15:22.469Z,1.46
2019-02-26T01:16:28.410Z,1.41
2019-02-26T01:17:35.752Z,1.30
2019-02-26T01:18:42.078Z,1.36
2019-02-26T01:19:46.252Z,1.40
2019-02-26T01:20:52.669Z,1.31
2019-02-26T01:21:58.798Z,1.15
2019-02-26T01:23:04.392Z,1.06
2019-02-26T01:24:10.026Z,1.03
2019-02-26T01:25:17.664Z,1.10
2019-02-26T01:26:21.224Z,1.09
2019-02-26T01:27:27.149Z,1.11
2019-02-26T01:28:33.112Z,1.23
2019-02-26T01:29:39.037Z,1.44
2019-02-26T01:30:44.973Z,1.57
2019-02-26T01:31:50.915Z,1.61
2019-02-26T01:32:58.166Z,1.35
2019-02-26T01:34:02.859Z,1.12
2019-02-26T01:35:10.683Z,1.28
2019-02-26T01:36:16.109Z,1.34
2019-02-26T01:37:20.343Z,1.35
2019-02-26T01:38:26.321Z,1.48
2019-02-26T01:39:32.282Z,1.60
2019-02-26T01:40:41.501Z,1.76
2019-02-26T01:41:46.044Z,1.85
2019-02-26T01:42:52.402Z,1.72
2019-02-26T01:43:55.804Z,1.57
2019-02-26T01:45:01.703Z,1.51
2019-02-26T01:46:09.436Z,1.70
2019-02-26T01:47:13.625Z,1.73
2019-02-26T01:48:19.586Z,1.61
2019-02-26T01:49:26.602Z,1.53
2019-02-26T01:50:33.234Z,1.52
2019-02-26T01:51:37.547Z,1.43
2019-02-26T01:52:43.487Z,1.49
2019-02-26T01:53:51.428Z,1.52
2019-02-26T01:54:55.848Z,1.58
2019-02-26T01:56:04.570Z,1.66
2019-02-26T01:57:09.158Z,1.77
2019-02-26T01:58:15.903Z,1.99
2019-02-26T01:59:19.359Z,2.15
2019-02-26T02:00:25.995Z,2.20
2019-02-26T02:01:30.234Z,2.24
2019-02-26T02:02:36.135Z,2.28
2019-02-26T02:03:41.727Z,2.24
2019-02-26T02:04:47.744Z,2.18
2019-02-26T02:05:54.843Z,2.12
2019-02-26T02:07:01.410Z,1.98
2019-02-26T02:08:09.051Z,1.75
2019-02-26T02:09:13.583Z,1.61
2019-02-26T02:10:16.698Z,1.25
2019-02-26T02:11:23.733Z,0.95
2019-02-26T02:12:30.116Z,0.85
2019-02-26T02:13:35.860Z,0.78
2019-02-26T02:14:40.516Z,0.65
2019-02-26T02:15:46.586Z,0.55
2019-02-26T02:16:52.411Z,0.63
2019-02-26T02:17:59.590Z,0.58
2019-02-26T02:19:03.796Z,0.51
2019-02-26T02:20:10.987Z,0.56
2019-02-26T02:21:15.734Z,0.56
2019-02-26T02:22:21.415Z,0.61
2019-02-26T02:23:28.033Z,0.71
2019-02-26T02:24:33.258Z,0.70
2019-02-26T02:25:40.886Z,0.69
2019-02-26T02:26:49.788Z,0.72
2019-02-26T02:27:52.499Z,0.69
2019-02-26T02:28:57.558Z,0.65
2019-02-26T02:30:03.138Z,0.61
2019-02-26T02:31:08.767Z,0.85
2019-02-26T02:32:14.659Z,1.12
2019-02-26T02:33:24.039Z,1.23
2019-02-26T02:34:29.259Z,1.42
2019-02-26T02:35:32.309Z,1.60
2019-02-26T02:36:38.279Z,1.73
2019-02-26T02:37:44.170Z,1.71
2019-02-26T02:38:50.087Z,1.64
2019-02-26T02:39:56.067Z,1.50
2019-02-26T02:41:02.010Z,1.38
2019-02-26T02:42:08.371Z,1.36
2019-02-26T02:43:16.108Z,1.36
2019-02-26T02:44:20.576Z,1.47
2019-02-26T02:45:25.526Z,1.65
2019-02-26T02:46:31.547Z,1.76
2019-02-26T02:47:38.794Z,1.96
2019-02-26T02:48:43.444Z,2.05
2019-02-26T02:49:49.371Z,2.13
2019-02-26T02:50:55.355Z,2.10
2019-02-26T02:52:02.035Z,2.05
2019-02-26T02:53:07.247Z,2.08
2019-02-26T02:54:15.455Z,2.24
2019-02-26T02:55:19.435Z,2.26
2019-02-26T02:56:25.138Z,2.37
2019-02-26T02:57:32.637Z,2.42
2019-02-26T02:58:38.543Z,2.51
2019-02-26T02:59:43.029Z,2.66
2019-02-26T03:00:51.599Z,2.79
2019-02-26T03:01:57.000Z,2.91
2019-02-26T03:03:01.834Z,2.80
2019-02-26T03:04:07.872Z,2.92
2019-02-26T03:05:13.926Z,2.91
2019-02-26T03:06:20.439Z,3.01
2019-02-26T03:07:27.471Z,3.20
2019-02-26T03:08:32.478Z,3.36
2019-02-26T03:09:40.531Z,3.40
2019-02-26T03:10:45.425Z,3.46
2019-02-26T03:11:53.020Z,3.35
2019-02-26T03:13:00.105Z,3.25
2019-02-26T03:14:05.673Z,3.04
2019-02-26T03:15:16.074Z,2.89
2019-02-26T03:16:23.926Z,2.92
2019-02-26T03:17:27.557Z,2.97
2019-02-26T03:18:33.457Z,2.95
2019-02-26T03:19:41.516Z,2.84
2019-02-26T03:20:46.522Z,2.67
2019-02-26T03:21:52.991Z,2.55
2019-02-26T03:22:58.466Z,2.54
2019-02-26T03:24:06.120Z,2.57
2019-02-26T03:25:11.764Z,2.61
2019-02-26T03:26:18.360Z,2.62
2019-02-26T03:27:23.717Z,2.72
2019-02-26T03:28:34.894Z,2.80
2019-02-26T03:29:36.575Z,2.70
2019-02-26T03:30:44.476Z,2.20
2019-02-26T03:31:54.823Z,2.02
2019-02-26T03:33:00.330Z,2.05
2019-02-26T03:34:08.851Z,2.00
2019-02-26T03:35:07.402Z,1.94
2019-02-26T03:36:14.135Z,2.02
2019-02-26T03:37:18.391Z,2.07
2019-02-26T03:38:26.431Z,2.00
2019-02-26T03:39:30.302Z,1.79
2019-02-26T03:40:36.144Z,1.34
2019-02-26T03:41:43.257Z,1.08
2019-02-26T03:42:47.906Z,1.02
2019-02-26T03:43:54.443Z,1.07
2019-02-26T03:44:59.621Z,1.35
2019-02-26T03:46:05.381Z,1.34
2019-02-26T03:47:11.285Z,1.46
2019-02-26T03:48:20.379Z,1.46
2019-02-26T03:49:27.127Z,1.25
2019-02-26T03:50:30.093Z,0.96
2019-02-26T03:51:39.143Z,0.70
2019-02-26T03:52:41.637Z,0.58
2019-02-26T03:53:47.648Z,0.61
2019-02-26T03:54:53.650Z,0.95
2019-02-26T03:56:01.993Z,1.10
2019-02-26T03:57:04.512Z,1.29
2019-02-26T03:58:10.420Z,1.32
2019-02-26T03:59:16.368Z,1.26
2019-02-26T04:00:23.387Z,1.03
2019-02-26T04:01:28.949Z,0.80
2019-02-26T04:02:37.429Z,0.66
2019-02-26T04:03:42.514Z,0.78
2019-02-26T04:04:51.714Z,0.97
2019-02-26T04:05:51.858Z,0.96
2019-02-26T04:06:58.475Z,0.98
2019-02-26T04:08:04.491Z,0.86
2019-02-26T04:09:10.896Z,0.82
2019-02-26T04:10:14.083Z,0.98
2019-02-26T04:11:22.111Z,1.02
2019-02-26T04:12:26.242Z,1.11
2019-02-26T04:13:32.186Z,1.11
2019-02-26T04:14:38.109Z,1.13
2019-02-26T04:15:44.144Z,1.11
2019-02-26T04:16:50.105Z,1.24
2019-02-26T04:17:56.041Z,1.24
2019-02-26T04:19:01.950Z,1.38
2019-02-26T04:20:07.181Z,1.51
2019-02-26T04:21:17.652Z,1.63
2019-02-26T04:22:26.180Z,1.43
2019-02-26T04:23:30.148Z,1.38
2019-02-26T04:24:37.993Z,1.33
2019-02-26T04:27:30.693Z,1.02
2019-02-26T04:28:40.422Z,1.01
2019-02-26T04:29:46.737Z,0.92
2019-02-26T04:32:36.448Z,0.68
2019-02-26T04:33:48.094Z,0.88
2019-02-26T04:34:54.515Z,0.79
2019-02-26T04:38:20.770Z,0.63
2019-02-26T04:39:47.516Z,0.47
2019-02-26T04:40:50.503Z,0.41
2019-02-26T04:42:09.399Z,0.27
2019-02-26T04:45:02.283Z,0.37
2019-02-26T04:46:25.562Z,0.60
2019-02-26T04:47:33.631Z,0.92
2019-02-26T04:48:36.577Z,0.92
2019-02-26T04:49:43.054Z,0.82
2019-02-26T04:50:48.310Z,0.73
2019-02-26T04:51:53.929Z,0.90
2019-02-26T04:53:04.424Z,1.00
2019-02-26T04:54:05.406Z,1.14
2019-02-26T04:55:11.019Z,1.13
2019-02-26T04:56:17.080Z,1.21
2019-02-26T04:57:22.648Z,1.16
2019-02-26T04:58:28.606Z,1.20
2019-02-26T04:59:34.944Z,1.15
2019-02-26T05:00:40.224Z,1.17
2019-02-26T05:01:47.229Z,1.17
2019-02-26T05:02:51.419Z,1.24
2019-02-26T05:03:57.037Z,1.22
2019-02-26T05:05:02.602Z,1.25
2019-02-26T05:06:10.652Z,1.29
2019-02-26T05:07:17.295Z,1.44
2019-02-26T05:08:21.726Z,1.58
2019-02-26T05:09:29.788Z,1.68
2019-02-26T05:10:34.342Z,1.69
2019-02-26T05:11:40.766Z,1.64
2019-02-26T05:12:45.904Z,1.49
2019-02-26T05:13:51.858Z,1.48
2019-02-26T05:14:57.773Z,1.44
2019-02-26T05:16:04.624Z,1.31
2019-02-26T05:17:11.318Z,1.21
2019-02-26T05:18:17.715Z,1.02
2019-02-26T05:19:24.370Z,0.95
2019-02-26T05:20:31.255Z,1.05
2019-02-26T05:21:36.171Z,1.03
2019-02-26T05:22:41.198Z,0.98
2019-02-26T05:23:49.359Z,0.95
2019-02-26T05:24:53.346Z,1.19
2019-02-26T05:26:05.224Z,1.36
2019-02-26T05:27:12.454Z,1.28
2019-02-26T05:28:17.639Z,1.27
2019-02-26T05:29:22.803Z,1.19
2019-02-26T05:30:28.776Z,1.20
2019-02-26T05:31:37.305Z,1.16
2019-02-26T05:32:40.741Z,1.22
2019-02-26T05:33:47.653Z,1.20
2019-02-26T05:34:52.758Z,1.19
2019-02-26T05:35:58.654Z,1.17
2019-02-26T05:37:05.462Z,1.30
2019-02-26T05:38:10.551Z,1.57
2019-02-26T05:39:20.417Z,1.59
2019-02-26T05:40:22.503Z,1.67
2019-02-26T05:41:28.479Z,1.80
2019-02-26T05:42:34.470Z,1.95
2019-02-26T05:43:40.384Z,1.86
2019-02-26T05:44:46.340Z,1.96
2019-02-26T05:45:54.882Z,2.05
2019-02-26T05:46:58.784Z,2.00
2019-02-26T05:48:04.282Z,2.01
2019-02-26T05:49:13.552Z,2.25
2019-02-26T05:50:16.785Z,2.41
2019-02-26T05:51:24.421Z,2.42
2019-02-26T05:52:30.636Z,2.35
2019-02-26T05:53:34.235Z,2.25
2019-02-26T05:54:40.198Z,2.09
2019-02-26T05:55:48.535Z,2.08
2019-02-26T05:56:52.143Z,2.33
2019-02-26T05:57:58.103Z,2.23
2019-02-26T05:59:06.841Z,2.02
2019-02-26T06:00:13.434Z,1.88
2019-02-26T06:01:18.507Z,1.73
2019-02-26T06:02:23.887Z,1.64
2019-02-26T06:03:27.228Z,1.60
2019-02-26T06:04:35.177Z,1.62
2019-02-26T06:05:43.417Z,1.66
2019-02-26T06:06:45.025Z,1.86
2019-02-26T06:07:54.844Z,1.79
2019-02-26T06:09:03.110Z,1.66
2019-02-26T06:10:07.318Z,1.54
2019-02-26T06:11:13.251Z,1.55
2019-02-26T06:12:19.243Z,1.64
2019-02-26T06:13:25.139Z,1.67
2019-02-26T06:14:33.260Z,1.68
2019-02-26T06:15:37.037Z,1.65
2019-02-26T06:16:43.678Z,1.61
2019-02-26T06:17:50.841Z,1.59
2019-02-26T06:18:54.777Z,1.50
2019-02-26T06:21:32.966Z,1.85
2019-02-26T06:22:38.897Z,1.78
2019-02-26T06:23:44.179Z,1.78
2019-02-26T06:24:50.052Z,1.84
2019-02-26T06:25:58.115Z,2.09
2019-02-26T06:27:01.926Z,2.29
2019-02-26T06:28:10.566Z,2.48
2019-02-26T06:29:13.799Z,2.63
2019-02-26T06:30:19.439Z,2.64
2019-02-26T06:31:25.389Z,2.71
2019-02-26T06:32:32.820Z,2.66
2019-02-26T06:33:38.451Z,2.60
2019-02-26T06:34:42.585Z,2.60
2019-02-26T06:35:48.555Z,2.44
2019-02-26T06:36:53.811Z,2.49
2019-02-26T06:38:01.981Z,2.63
2019-02-26T06:39:06.020Z,2.73
2019-02-26T06:40:10.283Z,2.71
2019-02-26T06:41:16.300Z,2.65
2019-02-26T06:42:22.268Z,2.69
2019-02-26T06:43:27.835Z,2.88
2019-02-26T06:44:33.757Z,2.85
2019-02-26T06:45:41.249Z,2.89
2019-02-26T06:46:45.741Z,2.83
2019-02-26T06:47:53.962Z,2.84
2019-02-26T06:48:57.620Z,2.67
2019-02-26T06:50:05.544Z,2.71
2019-02-26T06:51:08.899Z,2.65
2019-02-26T06:52:16.288Z,2.48
2019-02-26T06:53:21.548Z,2.55
2019-02-26T06:54:28.925Z,2.44
2019-02-26T06:55:32.679Z,2.50
2019-02-26T06:56:43.285Z,2.54
2019-02-26T06:57:46.363Z,2.61
2019-02-26T06:58:51.702Z,2.43
2019-02-26T07:00:00.665Z,2.29
2019-02-26T07:01:03.557Z,2.23
2019-02-26T07:02:11.024Z,2.08
2019-02-26T07:03:16.309Z,2.01
2019-02-26T07:04:22.222Z,2.07
2019-02-26T07:05:28.150Z,2.03
2019-02-26T07:06:34.890Z,2.07
2019-02-26T07:07:40.090Z,2.09
2019-02-26T07:08:47.220Z,2.01
2019-02-26T07:09:51.925Z,2.03
2019-02-26T07:10:57.946Z,2.17
2019-02-26T07:12:03.616Z,2.43
2019-02-26T07:13:11.835Z,2.74
2019-02-26T07:14:15.466Z,2.86
2019-02-26T07:15:21.065Z,2.81
2019-02-26T07:16:26.977Z,2.76
2019-02-26T07:17:34.325Z,2.74
2019-02-26T07:18:38.526Z,2.96
2019-02-26T07:19:44.505Z,3.05
2019-02-26T07:20:52.587Z,3.00
2019-02-26T07:21:56.382Z,2.85
2019-02-26T07:23:03.903Z,2.60
2019-02-26T07:24:08.331Z,2.51
2019-02-26T07:25:16.451Z,2.48
2019-02-26T07:26:20.889Z,2.42
2019-02-26T07:27:26.486Z,2.42
2019-02-26T07:28:32.059Z,2.39
2019-02-26T07:29:40.130Z,2.55
2019-02-26T07:30:44.715Z,2.57
2019-02-26T07:31:51.715Z,2.69
2019-02-26T07:32:55.853Z,2.89
2019-02-26T07:34:03.202Z,3.02
2019-02-26T07:35:08.710Z,2.93
2019-02-26T07:36:13.008Z,2.93
2019-02-26T07:37:18.932Z,3.12
2019-02-26T07:38:25.183Z,3.21
2019-02-26T07:39:30.869Z,3.36
2019-02-26T07:40:38.629Z,3.47
2019-02-26T07:41:44.515Z,3.41
2019-02-26T07:42:49.188Z,3.55
2019-02-26T07:43:54.854Z,3.53
2019-02-26T07:45:00.774Z,3.48
2019-02-26T07:46:06.669Z,3.50
2019-02-26T07:47:12.597Z,3.48
2019-02-26T07:48:21.098Z,3.46
2019-02-26T07:49:24.451Z,3.58
2019-02-26T07:50:34.175Z,3.67
2019-02-26T07:51:38.061Z,3.67
2019-02-26T07:52:42.032Z,3.78
2019-02-26T07:53:50.635Z,4.14
2019-02-26T07:54:54.046Z,4.35
2019-02-26T07:56:01.792Z,4.46
2019-02-26T07:57:05.563Z,4.34
2019-02-26T07:58:15.587Z,4.53
2019-02-26T07:59:27.449Z,4.53
2019-02-26T08:00:25.297Z,4.64
2019-02-26T08:01:31.254Z,4.68
2019-02-26T08:02:37.373Z,4.73
2019-02-26T08:03:46.401Z,4.82
2019-02-26T08:04:50.335Z,5.04
2019-02-26T08:05:56.993Z,5.17
2019-02-26T08:07:03.739Z,5.35
2019-02-26T08:08:09.798Z,5.39
2019-02-26T08:09:17.006Z,5.36
2019-02-26T08:10:20.915Z,5.49
2019-02-26T08:11:26.865Z,5.61
2019-02-26T08:12:35.121Z,5.65
2019-02-26T08:13:38.772Z,5.56
2019-02-26T08:14:46.026Z,5.56
2019-02-26T08:15:50.599Z,5.72
2019-02-26T08:16:58.664Z,5.78
2019-02-26T08:18:03.460Z,6.00
2019-02-26T08:19:08.398Z,6.12
2019-02-26T08:20:14.846Z,6.11
2019-02-26T08:21:21.723Z,6.15
2019-02-26T08:22:27.522Z,6.15
2019-02-26T08:23:31.486Z,6.18
2019-02-26T08:24:37.382Z,6.26
2019-02-26T08:25:43.308Z,6.43
2019-02-26T08:26:50.056Z,6.41
2019-02-26T08:27:58.340Z,6.55
2019-02-26T08:29:03.417Z,6.74
2019-02-26T08:30:07.555Z,6.81
2019-02-26T08:31:15.418Z,6.89
2019-02-26T08:32:21.051Z,6.97
2019-02-26T08:33:25.173Z,7.13
2019-02-26T08:34:31.086Z,7.20
2019-02-26T08:35:36.986Z,7.04
2019-02-26T08:36:46.181Z,7.22
2019-02-26T08:37:48.889Z,7.20
2019-02-26T08:38:57.109Z,7.13
2019-02-26T08:40:02.313Z,7.17
2019-02-26T08:41:08.251Z,7.43
2019-02-26T08:42:14.242Z,7.59
2019-02-26T08:43:20.012Z,7.79
2019-02-26T08:44:28.079Z,7.80
2019-02-26T08:45:31.518Z,7.76
2019-02-26T08:46:39.655Z,7.89
2019-02-26T08:47:43.736Z,7.79
2019-02-26T08:48:50.795Z,7.68
2019-02-26T08:49:56.116Z,7.73
2019-02-26T08:51:05.382Z,7.75
2019-02-26T08:52:08.047Z,7.80
2019-02-26T08:53:13.937Z,7.89
2019-02-26T08:54:21.152Z,8.10
2019-02-26T08:55:25.831Z,8.44
2019-02-26T08:56:35.811Z,8.57
2019-02-26T08:57:37.769Z,8.54
2019-02-26T08:58:45.353Z,8.47
2019-02-26T08:59:50.433Z,8.50
2019-02-26T09:00:55.559Z,8.72
2019-02-26T09:02:01.473Z,8.93
2019-02-26T09:03:08.805Z,8.98
2019-02-26T09:04:14.508Z,9.29
2019-02-26T09:05:19.010Z,9.48
2019-02-26T09:06:24.977Z,9.52
2019-02-26T09:07:30.917Z,9.30
2019-02-26T09:08:38.572Z,9.28
2019-02-26T09:09:44.612Z,9.21
2019-02-26T09:10:48.922Z,9.32
2019-02-26T09:11:55.906Z,9.39
2019-02-26T09:13:00.806Z,9.43
2019-02-26T09:14:09.035Z,9.73
2019-02-26T09:15:15.736Z,9.96
2019-02-26T09:16:21.782Z,10.19
2019-02-26T09:17:26.928Z,10.16
2019-02-26T09:18:35.514Z,10.10
2019-02-26T09:19:38.111Z,10.02
2019-02-26T09:20:43.565Z,9.82
2019-02-26T09:21:50.540Z,9.81
2019-02-26T09:22:56.393Z,10.04
2019-02-26T09:24:04.233Z,10.06
2019-02-26T09:25:06.873Z,10.10
2019-02-26T09:26:12.800Z,10.14
2019-02-26T09:27:18.749Z,10.18
2019-02-26T09:28:25.341Z,10.20
2019-02-26T09:29:31.451Z,10.13
2019-02-26T09:30:38.398Z,10.21
2019-02-26T09:31:42.785Z,10.21
2019-02-26T09:32:48.745Z,10.30
2019-02-26T09:33:54.631Z,10.22
2019-02-26T09:35:03.903Z,10.40
2019-02-26T09:36:10.481Z,10.16
2019-02-26T09:37:13.441Z,10.35
2019-02-26T09:38:22.495Z,10.61
2019-02-26T09:39:27.026Z,10.71
2019-02-26T09:40:34.269Z,10.82
2019-02-26T09:41:38.574Z,10.96
2019-02-26T09:42:43.948Z,11.10
2019-02-26T09:43:48.952Z,10.78
2019-02-26T09:44:55.418Z,10.85
2019-02-26T09:46:00.198Z,11.00
2019-02-26T09:47:07.580Z,11.24
2019-02-26T09:48:12.966Z,11.26
2019-02-26T09:49:18.036Z,11.27
2019-02-26T09:50:23.927Z,10.95
2019-02-26T09:51:31.059Z,10.76
2019-02-26T09:52:37.171Z,10.93
2019-02-26T09:53:43.134Z,11.22
2019-02-26T09:54:51.119Z,11.33
2019-02-26T09:55:55.080Z,11.21
2019-02-26T09:57:00.999Z,11.23
2019-02-26T09:58:06.937Z,11.16
2019-02-26T09:59:14.669Z,11.34
2019-02-26T10:00:22.030Z,11.39
2019-02-26T10:01:24.082Z,11.37
2019-02-26T10:02:30.005Z,11.35
2019-02-26T10:03:38.948Z,11.50
2019-02-26T10:04:42.493Z,11.45
2019-02-26T10:05:50.087Z,11.32
2019-02-26T10:06:53.587Z,11.32
2019-02-26T10:08:02.152Z,11.39
2019-02-26T10:09:04.804Z,11.39
2019-02-26T10:10:13.656Z,11.32
2019-02-26T10:11:18.484Z,11.36
2019-02-26T10:12:23.403Z,11.37
2019-02-26T10:13:29.499Z,11.62
2019-02-26T10:14:36.577Z,11.63
2019-02-26T10:15:42.758Z,11.48
2019-02-26T10:16:50.084Z,11.58
2019-02-26T10:17:53.620Z,11.67
2019-02-26T10:18:59.542Z,11.79
2019-02-26T10:20:22.747Z,11.85
2019-02-26T10:21:26.573Z,12.07
2019-02-26T10:22:33.145Z,12.12
2019-02-26T10:23:38.484Z,12.16
2019-02-26T10:24:44.450Z,12.06
2019-02-26T10:25:53.003Z,11.96
2019-02-26T10:26:58.733Z,12.25
2019-02-26T10:28:05.761Z,12.29
2019-02-26T10:29:08.228Z,12.23
2019-02-26T10:30:16.735Z,12.50
2019-02-26T10:31:24.794Z,12.71
2019-02-26T10:32:28.745Z,12.96
2019-02-26T10:33:40.166Z,12.82
2019-02-26T10:34:43.157Z,12.88
2019-02-26T10:35:49.882Z,12.83
2019-02-26T10:36:54.978Z,13.04
2019-02-26T10:38:05.131Z,13.01
2019-02-26T10:39:07.496Z,12.86
2019-02-26T10:40:14.003Z,13.03
2019-02-26T10:41:17.992Z,13.17
2019-02-26T10:42:24.024Z,13.12
2019-02-26T10:43:29.943Z,13.15
2019-02-26T10:44:35.989Z,13.17
2019-02-26T10:45:44.292Z,13.20
2019-02-26T10:46:47.283Z,13.31
2019-02-26T10:47:54.188Z,13.26
2019-02-26T10:48:58.483Z,13.20
2019-02-26T10:50:03.841Z,13.33
2019-02-26T10:51:09.624Z,13.34
2019-02-26T10:52:16.850Z,13.52
2019-02-26T10:53:22.771Z,13.50
2019-02-26T10:54:30.955Z,13.56
2019-02-26T10:55:38.574Z,13.58
2019-02-26T10:56:42.544Z,13.61
2019-02-26T10:57:48.483Z,13.53
2019-02-26T10:58:57.331Z,13.60
2019-02-26T11:00:02.583Z,13.49
2019-02-26T11:01:05.646Z,13.53
2019-02-26T11:02:11.256Z,13.58
2019-02-26T11:03:17.422Z,13.68
2019-02-26T11:04:22.803Z,13.80
2019-02-26T11:05:28.357Z,13.92
2019-02-26T11:06:38.303Z,13.92
2019-02-26T11:07:40.267Z,13.71
2019-02-26T11:08:47.539Z,13.79
2019-02-26T11:09:53.626Z,13.83
2019-02-26T11:10:58.124Z,13.99
2019-02-26T11:12:06.361Z,14.09
2019-02-26T11:13:12.432Z,14.26
2019-02-26T11:14:17.361Z,14.45
2019-02-26T11:15:23.824Z,14.45
2019-02-26T11:16:28.870Z,14.07
2019-02-26T11:17:33.813Z,13.99
2019-02-26T11:18:40.680Z,13.90
2019-02-26T11:19:45.735Z,13.91
2019-02-26T11:20:55.262Z,14.05
2019-02-26T11:21:58.683Z,14.25
2019-02-26T11:23:06.003Z,14.24
2019-02-26T11:24:11.202Z,14.39
2019-02-26T11:25:17.931Z,14.51
2019-02-26T11:26:21.046Z,14.36
2019-02-26T11:27:26.931Z,14.35
2019-02-26T11:28:36.214Z,14.45
2019-02-26T11:29:40.647Z,14.31
2019-02-26T11:30:46.459Z,14.60
2019-02-26T11:31:50.661Z,14.36
2019-02-26T11:33:02.227Z,14.57
2019-02-26T11:34:04.081Z,14.83
2019-02-26T11:35:08.397Z,14.58
2019-02-26T11:36:15.726Z,14.52
2019-02-26T11:37:22.398Z,14.75
2019-02-26T11:38:25.905Z,14.74
2019-02-26T11:39:31.803Z,15.10
2019-02-26T11:40:37.718Z,15.36
2019-02-26T11:41:43.658Z,15.36
2019-02-26T11:42:51.127Z,15.39
2019-02-26T11:43:55.359Z,15.18
2019-02-26T11:45:01.378Z,14.90
2019-02-26T11:46:08.684Z,14.71
2019-02-26T11:47:13.696Z,14.97
2019-02-26T11:48:20.662Z,15.18
2019-02-26T11:49:24.511Z,15.44
2019-02-26T11:50:30.419Z,15.73
2019-02-26T11:51:37.351Z,15.76
2019-02-26T11:52:41.968Z,15.97
2019-02-26T11:53:47.943Z,15.83
2019-02-26T11:54:53.851Z,15.78
2019-02-26T11:56:01.869Z,15.75
2019-02-26T11:57:07.420Z,15.91
2019-02-26T11:58:15.430Z,15.69
2019-02-26T11:59:19.510Z,15.08
2019-02-26T12:00:25.875Z,15.42
2019-02-26T12:01:32.206Z,15.11
2019-02-26T12:02:39.241Z,15.08
2019-02-26T12:03:43.950Z,15.00
2019-02-26T12:04:49.175Z,15.33
2019-02-26T12:05:56.687Z,15.46
2019-02-26T12:07:01.829Z,15.35
2019-02-26T12:08:06.998Z,15.37
2019-02-26T12:09:14.243Z,15.67
2019-02-26T12:10:18.938Z,15.42
2019-02-26T12:11:24.830Z,15.46
2019-02-26T12:12:31.165Z,15.49
2019-02-26T12:13:36.719Z,15.55
2019-02-26T12:14:43.890Z,15.37
2019-02-26T12:15:48.708Z,15.69
2019-02-26T12:16:54.638Z,15.90
2019-02-26T12:18:00.559Z,15.85
2019-02-26T12:19:08.744Z,16.07
2019-02-26T12:20:17.685Z,16.21
2019-02-26T12:21:22.024Z,16.27
2019-02-26T12:22:29.625Z,16.28
2019-02-26T12:23:34.908Z,16.29
2019-02-26T12:24:39.929Z,16.33
2019-02-26T12:25:47.121Z,15.95
2019-02-26T12:26:52.413Z,15.99
2019-02-26T12:27:57.397Z,16.03
2019-02-26T12:29:04.410Z,16.28
2019-02-26T12:30:13.790Z,16.30
2019-02-26T12:31:19.044Z,15.92
2019-02-26T12:32:26.989Z,15.95
2019-02-26T12:33:32.464Z,15.91
2019-02-26T12:34:38.569Z,16.09
2019-02-26T12:35:43.685Z,15.95
2019-02-26T12:36:51.226Z,16.21
2019-02-26T12:37:56.660Z,16.15
2019-02-26T12:39:02.410Z,15.95
2019-02-26T12:40:06.206Z,16.20
2019-02-26T12:41:15.595Z,15.91
2019-02-26T12:42:18.718Z,15.78
2019-02-26T12:43:24.084Z,15.63
2019-02-26T12:44:31.912Z,15.64
2019-02-26T12:45:38.673Z,15.86
2019-02-26T12:46:42.019Z,16.15
2019-02-26T12:47:49.372Z,16.14
2019-02-26T12:48:53.235Z,15.98
2019-02-26T12:50:01.650Z,15.98
2019-02-26T12:51:05.333Z,16.14
2019-02-26T12:52:10.353Z,15.86
2019-02-26T12:53:18.107Z,15.82
2019-02-26T12:54:22.208Z,15.57
2019-02-26T12:55:31.658Z,15.57
2019-02-26T12:56:37.344Z,15.61
2019-02-26T12:57:40.097Z,15.67
2019-02-26T12:58:48.342Z,15.80
2019-02-26T12:59:52.052Z,15.80
2019-02-26T13:00:57.979Z,15.90
2019-02-26T13:02:05.681Z,15.96
2019-02-26T13:03:12.744Z,15.71
2019-02-26T13:04:19.579Z,15.63
2019-02-26T13:05:23.054Z,15.83
2019-02-26T13:06:27.601Z,16.00
2019-02-26T13:07:33.509Z,16.03
2019-02-26T13:08:39.786Z,16.06
2019-02-26T13:09:50.503Z,16.19
2019-02-26T13:10:55.478Z,16.43
2019-02-26T13:12:02.582Z,16.16
2019-02-26T13:13:07.443Z,15.98
2019-02-26T13:14:09.309Z,15.83
2019-02-26T13:15:19.043Z,15.84
2019-02-26T13:16:20.923Z,15.74
2019-02-26T13:17:28.728Z,15.99
2019-02-26T13:18:32.801Z,16.36
2019-02-26T13:19:39.337Z,16.31
2019-02-26T13:20:44.719Z,16.40
2019-02-26T13:21:51.799Z,16.63
2019-02-26T13:23:16.411Z,16.78
2019-02-26T13:24:11.653Z,16.96
2019-02-26T13:25:15.104Z,16.95
2019-02-26T13:26:19.591Z,16.52
2019-02-26T13:27:20.913Z,16.44
2019-02-26T13:28:29.547Z,16.72
2019-02-26T13:29:32.764Z,17.02
2019-02-26T13:30:38.698Z,17.21
2019-02-26T13:31:53.476Z,17.24
2019-02-26T13:32:56.031Z,16.97
2019-02-26T13:33:56.605Z,16.78
2019-02-26T13:35:07.433Z,16.87
2019-02-26T13:36:07.788Z,16.73
2019-02-26T13:37:13.672Z,16.89
2019-02-26T13:38:24.305Z,17.02
2019-02-26T13:39:29.969Z,16.95
2019-02-26T13:40:37.953Z,17.05
2019-02-26T13:41:38.909Z,16.87
2019-02-26T13:42:42.418Z,16.74
2019-02-26T13:43:48.302Z,16.78
2019-02-26T13:44:54.496Z,16.53
2019-02-26T13:46:00.402Z,16.39
2019-02-26T13:47:05.362Z,16.33
2019-02-26T13:48:11.115Z,16.36
2019-02-26T13:49:17.052Z,16.41
2019-02-26T13:50:24.718Z,16.76
2019-02-26T13:51:30.643Z,16.61
2019-02-26T13:52:36.584Z,16.51
2019-02-26T13:53:42.524Z,16.19
2019-02-26T13:54:48.464Z,16.06
2019-02-26T13:55:54.414Z,16.23
2019-02-26T13:57:00.317Z,16.25
2019-02-26T13:58:11.678Z,16.66
2019-02-26T13:59:11.613Z,16.90
2019-02-26T14:00:23.566Z,17.03
2019-02-26T14:01:22.816Z,16.91
2019-02-26T14:02:28.775Z,17.09
2019-02-26T14:03:34.676Z,17.46
2019-02-26T14:04:40.592Z,17.10
2019-02-26T14:05:47.319Z,16.91
2019-02-26T14:06:53.617Z,16.87
2019-02-26T14:07:59.537Z,16.98
2019-02-26T14:09:05.120Z,16.55
2019-02-26T14:10:13.843Z,16.39
2019-02-26T14:11:19.809Z,16.50
2019-02-26T14:12:25.768Z,16.51
2019-02-26T14:13:31.675Z,16.63
2019-02-26T14:14:37.625Z,16.40
2019-02-26T14:15:42.897Z,16.67
2019-02-26T14:16:48.862Z,16.68
2019-02-26T14:17:54.066Z,17.02
2019-02-26T14:19:00.011Z,16.93
2019-02-26T14:20:05.332Z,16.53
2019-02-26T14:21:11.205Z,16.76
2019-02-26T14:22:17.182Z,16.55
2019-02-26T14:23:23.086Z,16.80
2019-02-26T14:24:29.013Z,17.00
2019-02-26T14:25:34.987Z,17.09
2019-02-26T14:26:41.359Z,17.03
2019-02-26T14:27:47.487Z,16.82
2019-02-26T14:28:53.428Z,16.49
2019-02-26T14:29:59.405Z,15.91
2019-02-26T14:31:05.355Z,16.18
2019-02-26T14:32:11.274Z,15.96
2019-02-26T14:33:17.239Z,16.03
2019-02-26T14:34:23.139Z,16.03
2019-02-26T14:35:29.103Z,16.16
2019-02-26T14:36:36.122Z,16.47
2019-02-26T14:37:41.426Z,16.57